sensor_id;sensor_type;location;lat;lon;timestamp;P1;durP1;ratioP1;P2;durP2;ratioP2
49416;SDS011;35290;39.550;8.786;2023-03-31T00:01:32;55.08;;;13.82;;
49416;SDS011;35290;39.550;8.786;2023-03-31T00:03:58;43.83;;;10.32;;
49416;SDS011;35290;39.550;8.786;2023-03-31T00:06:33;43.05;;;10.63;;
49416;SDS011;35290;39.550;8.786;2023-03-31T00:09:03;33.25;;;9.70;;
49416;SDS011;35290;39.550;8.786;2023-03-31T00:11:39;33.88;;;10.32;;
49416;SDS011;35290;39.550;8.786;2023-03-31T00:14:05;35.38;;;10.82;;
49416;SDS011;35290;39.550;8.786;2023-03-31T00:16:32;27.75;;;9.80;;
49416;SDS011;35290;39.550;8.786;2023-03-31T00:18:58;37.08;;;11.00;;
49416;SDS011;35290;39.550;8.786;2023-03-31T00:21:26;29.05;;;9.63;;
49416;SDS011;35290;39.550;8.786;2023-03-31T00:24:08;29.17;;;9.45;;
49416;SDS011;35290;39.550;8.786;2023-03-31T00:26:35;23.38;;;8.98;;
49416;SDS011;35290;39.550;8.786;2023-03-31T00:29:01;28.65;;;9.18;;
49416;SDS011;35290;39.550;8.786;2023-03-31T00:31:28;30.27;;;9.32;;
49416;SDS011;35290;39.550;8.786;2023-03-31T00:33:53;32.53;;;8.82;;
49416;SDS011;35290;39.550;8.786;2023-03-31T00:36:19;29.02;;;9.88;;
49416;SDS011;35290;39.550;8.786;2023-03-31T00:38:48;21.10;;;8.38;;
49416;SDS011;35290;39.550;8.786;2023-03-31T00:41:15;32.53;;;8.35;;
49416;SDS011;35290;39.550;8.786;2023-03-31T00:43:59;32.13;;;7.82;;
49416;SDS011;35290;39.550;8.786;2023-03-31T00:46:28;18.05;;;8.05;;
49416;SDS011;35290;39.550;8.786;2023-03-31T00:48:55;15.18;;;7.85;;
49416;SDS011;35290;39.550;8.786;2023-03-31T00:51:22;12.95;;;7.35;;
49416;SDS011;35290;39.550;8.786;2023-03-31T00:53:49;16.23;;;6.43;;
49416;SDS011;35290;39.550;8.786;2023-03-31T00:56:21;12.48;;;6.50;;
49416;SDS011;35290;39.550;8.786;2023-03-31T00:58:47;18.60;;;7.35;;
49416;SDS011;35290;39.550;8.786;2023-03-31T01:01:15;15.07;;;7.72;;
49416;SDS011;35290;39.550;8.786;2023-03-31T01:03:43;14.00;;;7.45;;
49416;SDS011;35290;39.550;8.786;2023-03-31T01:06:10;13.93;;;7.32;;
49416;SDS011;35290;39.550;8.786;2023-03-31T01:08:37;27.27;;;10.68;;
49416;SDS011;35290;39.550;8.786;2023-03-31T01:11:06;40.20;;;12.80;;
49416;SDS011;35290;39.550;8.786;2023-03-31T01:13:35;36.13;;;12.57;;
49416;SDS011;35290;39.550;8.786;2023-03-31T01:16:01;38.13;;;13.20;;
49416;SDS011;35290;39.550;8.786;2023-03-31T01:18:27;38.25;;;13.35;;
49416;SDS011;35290;39.550;8.786;2023-03-31T01:45:26;39.97;;;13.07;;
49416;SDS011;35290;39.550;8.786;2023-03-31T01:48:06;35.38;;;12.02;;
49416;SDS011;35290;39.550;8.786;2023-03-31T01:51:00;36.17;;;13.32;;
49416;SDS011;35290;39.550;8.786;2023-03-31T01:53:30;40.50;;;13.20;;
49416;SDS011;35290;39.550;8.786;2023-03-31T01:56:09;33.50;;;13.35;;
49416;SDS011;35290;39.550;8.786;2023-03-31T01:58:45;32.90;;;13.57;;
49416;SDS011;35290;39.550;8.786;2023-03-31T02:01:33;30.67;;;12.65;;
49416;SDS011;35290;39.550;8.786;2023-03-31T02:06:38;25.23;;;11.32;;
49416;SDS011;35290;39.550;8.786;2023-03-31T02:09:08;25.00;;;11.32;;
49416;SDS011;35290;39.550;8.786;2023-03-31T02:11:35;33.97;;;9.30;;
49416;SDS011;35290;39.550;8.786;2023-03-31T02:14:03;15.75;;;9.15;;
49416;SDS011;35290;39.550;8.786;2023-03-31T02:16:33;11.45;;;6.80;;
49416;SDS011;35290;39.550;8.786;2023-03-31T02:19:02;11.75;;;7.10;;
49416;SDS011;35290;39.550;8.786;2023-03-31T02:21:31;9.65;;;6.20;;
49416;SDS011;35290;39.550;8.786;2023-03-31T02:23:58;10.23;;;5.45;;
49416;SDS011;35290;39.550;8.786;2023-03-31T02:26:30;7.82;;;4.97;;
49416;SDS011;35290;39.550;8.786;2023-03-31T02:29:01;7.65;;;4.30;;
49416;SDS011;35290;39.550;8.786;2023-03-31T02:34:32;7.03;;;5.10;;
49416;SDS011;35290;39.550;8.786;2023-03-31T02:36:58;6.22;;;4.88;;
49416;SDS011;35290;39.550;8.786;2023-03-31T02:39:24;6.90;;;4.88;;
49416;SDS011;35290;39.550;8.786;2023-03-31T02:41:52;6.85;;;4.72;;
49416;SDS011;35290;39.550;8.786;2023-03-31T02:44:18;6.35;;;4.47;;
49416;SDS011;35290;39.550;8.786;2023-03-31T02:46:43;5.72;;;4.22;;
49416;SDS011;35290;39.550;8.786;2023-03-31T02:49:09;6.05;;;4.63;;
49416;SDS011;35290;39.550;8.786;2023-03-31T02:51:52;6.68;;;4.38;;
49416;SDS011;35290;39.550;8.786;2023-03-31T03:07:12;6.82;;;4.72;;
49416;SDS011;35290;39.550;8.786;2023-03-31T03:09:52;18.67;;;6.22;;
49416;SDS011;35290;39.550;8.786;2023-03-31T03:12:24;10.65;;;6.43;;
49416;SDS011;35290;39.550;8.786;2023-03-31T03:15:28;9.68;;;6.20;;
49416;SDS011;35290;39.550;8.786;2023-03-31T03:17:55;9.35;;;6.72;;
49416;SDS011;35290;39.550;8.786;2023-03-31T03:20:21;12.23;;;6.80;;
49416;SDS011;35290;39.550;8.786;2023-03-31T03:22:47;14.05;;;6.93;;
49416;SDS011;35290;39.550;8.786;2023-03-31T03:25:13;9.07;;;6.40;;
49416;SDS011;35290;39.550;8.786;2023-03-31T03:27:41;9.23;;;6.10;;
49416;SDS011;35290;39.550;8.786;2023-03-31T03:30:09;8.70;;;6.03;;
49416;SDS011;35290;39.550;8.786;2023-03-31T03:32:35;7.55;;;4.80;;
49416;SDS011;35290;39.550;8.786;2023-03-31T03:35:03;6.07;;;4.55;;
49416;SDS011;35290;39.550;8.786;2023-03-31T03:37:31;6.13;;;4.65;;
49416;SDS011;35290;39.550;8.786;2023-03-31T03:39:57;5.68;;;4.35;;
49416;SDS011;35290;39.550;8.786;2023-03-31T03:42:23;5.65;;;4.28;;
49416;SDS011;35290;39.550;8.786;2023-03-31T03:44:48;5.28;;;4.35;;
49416;SDS011;35290;39.550;8.786;2023-03-31T03:47:14;4.65;;;3.92;;
49416;SDS011;35290;39.550;8.786;2023-03-31T03:49:40;5.95;;;3.90;;
49416;SDS011;35290;39.550;8.786;2023-03-31T03:52:05;4.05;;;3.53;;
49416;SDS011;35290;39.550;8.786;2023-03-31T03:54:31;4.63;;;3.25;;
49416;SDS011;35290;39.550;8.786;2023-03-31T03:56:56;3.75;;;3.33;;
49416;SDS011;35290;39.550;8.786;2023-03-31T03:59:22;7.50;;;3.47;;
49416;SDS011;35290;39.550;8.786;2023-03-31T04:01:48;5.10;;;3.65;;
49416;SDS011;35290;39.550;8.786;2023-03-31T04:04:13;5.13;;;3.53;;
49416;SDS011;35290;39.550;8.786;2023-03-31T04:06:39;5.32;;;4.18;;
49416;SDS011;35290;39.550;8.786;2023-03-31T04:09:05;5.20;;;4.10;;
49416;SDS011;35290;39.550;8.786;2023-03-31T04:11:31;8.35;;;4.90;;
49416;SDS011;35290;39.550;8.786;2023-03-31T04:13:57;7.60;;;4.18;;
49416;SDS011;35290;39.550;8.786;2023-03-31T04:16:22;5.80;;;4.03;;
49416;SDS011;35290;39.550;8.786;2023-03-31T04:18:49;6.93;;;4.65;;
49416;SDS011;35290;39.550;8.786;2023-03-31T04:21:17;5.55;;;4.65;;
49416;SDS011;35290;39.550;8.786;2023-03-31T04:23:47;6.13;;;4.90;;
49416;SDS011;35290;39.550;8.786;2023-03-31T04:26:14;4.93;;;4.03;;
49416;SDS011;35290;39.550;8.786;2023-03-31T04:28:41;6.85;;;4.38;;
49416;SDS011;35290;39.550;8.786;2023-03-31T04:31:11;4.95;;;4.10;;
49416;SDS011;35290;39.550;8.786;2023-03-31T04:33:41;6.03;;;4.70;;
49416;SDS011;35290;39.550;8.786;2023-03-31T04:36:10;7.38;;;4.78;;
49416;SDS011;35290;39.550;8.786;2023-03-31T04:38:47;5.25;;;4.43;;
49416;SDS011;35290;39.550;8.786;2023-03-31T04:41:19;5.47;;;4.53;;
49416;SDS011;35290;39.550;8.786;2023-03-31T04:43:45;6.15;;;4.00;;
49416;SDS011;35290;39.550;8.786;2023-03-31T04:46:11;6.13;;;4.07;;
49416;SDS011;35290;39.550;8.786;2023-03-31T04:48:36;5.68;;;4.00;;
49416;SDS011;35290;39.550;8.786;2023-03-31T04:51:02;7.15;;;4.07;;
49416;SDS011;35290;39.550;8.786;2023-03-31T04:53:28;7.68;;;4.78;;
49416;SDS011;35290;39.550;8.786;2023-03-31T04:55:53;7.70;;;5.40;;
49416;SDS011;35290;39.550;8.786;2023-03-31T04:58:19;9.57;;;6.05;;
49416;SDS011;35290;39.550;8.786;2023-03-31T05:00:44;7.95;;;5.18;;
49416;SDS011;35290;39.550;8.786;2023-03-31T05:03:10;8.57;;;5.53;;
49416;SDS011;35290;39.550;8.786;2023-03-31T05:05:36;8.40;;;5.40;;
49416;SDS011;35290;39.550;8.786;2023-03-31T05:08:02;9.02;;;4.78;;
49416;SDS011;35290;39.550;8.786;2023-03-31T05:10:28;13.10;;;5.63;;
49416;SDS011;35290;39.550;8.786;2023-03-31T05:12:54;8.00;;;5.05;;
49416;SDS011;35290;39.550;8.786;2023-03-31T05:15:20;7.55;;;4.93;;
49416;SDS011;35290;39.550;8.786;2023-03-31T05:17:45;8.35;;;5.05;;
49416;SDS011;35290;39.550;8.786;2023-03-31T05:20:11;9.07;;;5.18;;
49416;SDS011;35290;39.550;8.786;2023-03-31T05:22:38;7.15;;;5.22;;
49416;SDS011;35290;39.550;8.786;2023-03-31T05:25:04;5.95;;;5.00;;
49416;SDS011;35290;39.550;8.786;2023-03-31T05:27:31;10.73;;;5.93;;
49416;SDS011;35290;39.550;8.786;2023-03-31T05:29:57;8.02;;;6.18;;
49416;SDS011;35290;39.550;8.786;2023-03-31T05:32:23;8.95;;;5.95;;
49416;SDS011;35290;39.550;8.786;2023-03-31T05:34:49;11.05;;;6.45;;
49416;SDS011;35290;39.550;8.786;2023-03-31T05:37:17;9.38;;;5.68;;
49416;SDS011;35290;39.550;8.786;2023-03-31T05:39:44;8.20;;;5.75;;
49416;SDS011;35290;39.550;8.786;2023-03-31T05:42:09;8.07;;;5.50;;
49416;SDS011;35290;39.550;8.786;2023-03-31T05:44:38;9.30;;;5.65;;
49416;SDS011;35290;39.550;8.786;2023-03-31T05:47:03;18.08;;;12.25;;
49416;SDS011;35290;39.550;8.786;2023-03-31T05:49:29;19.00;;;11.93;;
49416;SDS011;35290;39.550;8.786;2023-03-31T05:51:54;10.15;;;6.43;;
49416;SDS011;35290;39.550;8.786;2023-03-31T05:54:20;11.73;;;6.28;;
49416;SDS011;35290;39.550;8.786;2023-03-31T05:56:46;7.78;;;4.40;;
49416;SDS011;35290;39.550;8.786;2023-03-31T05:59:12;7.95;;;4.35;;
49416;SDS011;35290;39.550;8.786;2023-03-31T06:01:38;7.80;;;4.28;;
49416;SDS011;35290;39.550;8.786;2023-03-31T06:04:03;10.23;;;4.35;;
49416;SDS011;35290;39.550;8.786;2023-03-31T06:06:29;7.60;;;4.22;;
49416;SDS011;35290;39.550;8.786;2023-03-31T06:08:57;8.80;;;3.90;;
49416;SDS011;35290;39.550;8.786;2023-03-31T06:11:22;6.25;;;4.07;;
49416;SDS011;35290;39.550;8.786;2023-03-31T06:13:48;7.80;;;4.28;;
49416;SDS011;35290;39.550;8.786;2023-03-31T06:16:14;8.98;;;4.05;;
49416;SDS011;35290;39.550;8.786;2023-03-31T06:18:41;7.53;;;4.15;;
49416;SDS011;35290;39.550;8.786;2023-03-31T06:21:09;7.13;;;4.00;;
49416;SDS011;35290;39.550;8.786;2023-03-31T06:23:37;7.75;;;3.65;;
49416;SDS011;35290;39.550;8.786;2023-03-31T06:26:04;8.75;;;4.13;;
49416;SDS011;35290;39.550;8.786;2023-03-31T06:28:31;8.82;;;4.30;;
49416;SDS011;35290;39.550;8.786;2023-03-31T06:31:04;12.82;;;4.72;;
49416;SDS011;35290;39.550;8.786;2023-03-31T06:33:31;14.68;;;4.70;;
49416;SDS011;35290;39.550;8.786;2023-03-31T06:35:57;10.10;;;5.20;;
49416;SDS011;35290;39.550;8.786;2023-03-31T06:38:25;11.25;;;4.90;;
49416;SDS011;35290;39.550;8.786;2023-03-31T06:40:51;10.40;;;6.05;;
49416;SDS011;35290;39.550;8.786;2023-03-31T06:43:17;11.68;;;5.50;;
49416;SDS011;35290;39.550;8.786;2023-03-31T06:45:42;11.40;;;5.22;;
49416;SDS011;35290;39.550;8.786;2023-03-31T06:48:08;17.85;;;6.90;;
49416;SDS011;35290;39.550;8.786;2023-03-31T06:50:36;17.55;;;7.43;;
49416;SDS011;35290;39.550;8.786;2023-03-31T06:53:02;18.42;;;5.82;;
49416;SDS011;35290;39.550;8.786;2023-03-31T06:55:28;12.98;;;7.15;;
49416;SDS011;35290;39.550;8.786;2023-03-31T06:57:53;23.65;;;8.48;;
49416;SDS011;35290;39.550;8.786;2023-03-31T07:00:19;22.45;;;7.93;;
49416;SDS011;35290;39.550;8.786;2023-03-31T07:02:45;14.82;;;6.05;;
49416;SDS011;35290;39.550;8.786;2023-03-31T07:05:11;14.75;;;5.35;;
49416;SDS011;35290;39.550;8.786;2023-03-31T07:07:36;13.38;;;5.53;;
49416;SDS011;35290;39.550;8.786;2023-03-31T07:10:02;21.13;;;5.90;;
49416;SDS011;35290;39.550;8.786;2023-03-31T07:12:28;12.10;;;5.82;;
49416;SDS011;35290;39.550;8.786;2023-03-31T07:14:53;21.25;;;7.30;;
49416;SDS011;35290;39.550;8.786;2023-03-31T07:17:19;12.40;;;5.80;;
49416;SDS011;35290;39.550;8.786;2023-03-31T07:19:45;13.25;;;6.07;;
49416;SDS011;35290;39.550;8.786;2023-03-31T07:22:12;23.42;;;11.35;;
49416;SDS011;35290;39.550;8.786;2023-03-31T07:24:38;23.30;;;8.18;;
49416;SDS011;35290;39.550;8.786;2023-03-31T07:27:05;17.67;;;6.00;;
49416;SDS011;35290;39.550;8.786;2023-03-31T07:29:31;15.52;;;6.20;;
49416;SDS011;35290;39.550;8.786;2023-03-31T07:31:56;14.20;;;6.03;;
49416;SDS011;35290;39.550;8.786;2023-03-31T07:34:21;12.57;;;5.05;;
49416;SDS011;35290;39.550;8.786;2023-03-31T07:36:47;12.52;;;5.07;;
49416;SDS011;35290;39.550;8.786;2023-03-31T07:39:12;18.70;;;5.32;;
49416;SDS011;35290;39.550;8.786;2023-03-31T07:41:38;19.95;;;5.13;;
49416;SDS011;35290;39.550;8.786;2023-03-31T07:44:04;16.58;;;4.80;;
49416;SDS011;35290;39.550;8.786;2023-03-31T07:46:29;18.45;;;4.65;;
49416;SDS011;35290;39.550;8.786;2023-03-31T07:48:55;13.18;;;4.15;;
49416;SDS011;35290;39.550;8.786;2023-03-31T07:51:23;14.68;;;4.80;;
49416;SDS011;35290;39.550;8.786;2023-03-31T07:53:50;15.57;;;5.50;;
49416;SDS011;35290;39.550;8.786;2023-03-31T07:56:20;14.02;;;5.20;;
49416;SDS011;35290;39.550;8.786;2023-03-31T07:58:47;14.35;;;5.55;;
49416;SDS011;35290;39.550;8.786;2023-03-31T08:01:17;14.65;;;5.63;;
49416;SDS011;35290;39.550;8.786;2023-03-31T08:03:44;13.93;;;5.07;;
49416;SDS011;35290;39.550;8.786;2023-03-31T08:06:11;18.65;;;5.15;;
49416;SDS011;35290;39.550;8.786;2023-03-31T08:08:37;12.38;;;4.68;;
49416;SDS011;35290;39.550;8.786;2023-03-31T08:11:07;13.25;;;4.55;;
49416;SDS011;35290;39.550;8.786;2023-03-31T08:13:33;20.58;;;4.50;;
49416;SDS011;35290;39.550;8.786;2023-03-31T08:15:58;16.95;;;4.65;;
49416;SDS011;35290;39.550;8.786;2023-03-31T08:18:24;18.63;;;4.75;;
49416;SDS011;35290;39.550;8.786;2023-03-31T08:20:49;14.55;;;4.78;;
49416;SDS011;35290;39.550;8.786;2023-03-31T08:23:15;15.27;;;5.43;;
49416;SDS011;35290;39.550;8.786;2023-03-31T08:25:40;13.48;;;4.93;;
49416;SDS011;35290;39.550;8.786;2023-03-31T08:28:06;12.43;;;4.63;;
49416;SDS011;35290;39.550;8.786;2023-03-31T08:30:37;15.32;;;5.18;;
49416;SDS011;35290;39.550;8.786;2023-03-31T08:33:03;14.25;;;4.47;;
49416;SDS011;35290;39.550;8.786;2023-03-31T08:35:29;15.52;;;4.63;;
49416;SDS011;35290;39.550;8.786;2023-03-31T08:37:54;17.60;;;4.55;;
49416;SDS011;35290;39.550;8.786;2023-03-31T08:40:21;14.38;;;4.15;;
49416;SDS011;35290;39.550;8.786;2023-03-31T08:42:49;13.77;;;3.75;;
49416;SDS011;35290;39.550;8.786;2023-03-31T08:45:25;13.32;;;4.10;;
49416;SDS011;35290;39.550;8.786;2023-03-31T08:47:55;12.10;;;3.42;;
49416;SDS011;35290;39.550;8.786;2023-03-31T08:50:44;15.43;;;3.25;;
49416;SDS011;35290;39.550;8.786;2023-03-31T08:53:16;9.02;;;3.15;;
49416;SDS011;35290;39.550;8.786;2023-03-31T08:55:52;15.35;;;3.30;;
49416;SDS011;35290;39.550;8.786;2023-03-31T09:01:01;10.80;;;3.20;;
49416;SDS011;35290;39.550;8.786;2023-03-31T09:06:11;10.38;;;2.85;;
49416;SDS011;35290;39.550;8.786;2023-03-31T09:08:42;11.88;;;2.70;;
49416;SDS011;35290;39.550;8.786;2023-03-31T09:11:10;8.60;;;3.00;;
49416;SDS011;35290;39.550;8.786;2023-03-31T09:19:11;13.65;;;3.53;;
49416;SDS011;35290;39.550;8.786;2023-03-31T09:21:42;12.50;;;3.28;;
49416;SDS011;35290;39.550;8.786;2023-03-31T09:27:00;11.40;;;3.35;;
49416;SDS011;35290;39.550;8.786;2023-03-31T09:29:29;13.90;;;4.05;;
49416;SDS011;35290;39.550;8.786;2023-03-31T09:32:16;14.20;;;3.78;;
49416;SDS011;35290;39.550;8.786;2023-03-31T09:34:42;14.32;;;4.07;;
49416;SDS011;35290;39.550;8.786;2023-03-31T09:37:09;12.90;;;3.97;;
49416;SDS011;35290;39.550;8.786;2023-03-31T09:39:36;13.38;;;4.15;;
49416;SDS011;35290;39.550;8.786;2023-03-31T09:42:02;10.73;;;3.70;;
49416;SDS011;35290;39.550;8.786;2023-03-31T09:44:35;19.58;;;3.70;;
49416;SDS011;35290;39.550;8.786;2023-03-31T09:47:03;13.25;;;4.55;;
49416;SDS011;35290;39.550;8.786;2023-03-31T09:49:36;12.60;;;4.07;;
49416;SDS011;35290;39.550;8.786;2023-03-31T09:52:03;17.92;;;5.38;;
49416;SDS011;35290;39.550;8.786;2023-03-31T09:54:35;13.88;;;4.22;;
49416;SDS011;35290;39.550;8.786;2023-03-31T09:57:10;11.30;;;3.45;;
49416;SDS011;35290;39.550;8.786;2023-03-31T09:59:38;10.80;;;4.43;;
49416;SDS011;35290;39.550;8.786;2023-03-31T10:03:05;15.10;;;4.95;;
49416;SDS011;35290;39.550;8.786;2023-03-31T10:05:02;14.02;;;5.55;;
49416;SDS011;35290;39.550;8.786;2023-03-31T10:07:28;12.18;;;4.13;;
49416;SDS011;35290;39.550;8.786;2023-03-31T10:09:54;12.70;;;3.63;;
49416;SDS011;35290;39.550;8.786;2023-03-31T10:12:22;15.38;;;3.50;;
49416;SDS011;35290;39.550;8.786;2023-03-31T10:14:51;12.88;;;6.00;;
49416;SDS011;35290;39.550;8.786;2023-03-31T10:17:19;15.85;;;5.50;;
49416;SDS011;35290;39.550;8.786;2023-03-31T10:19:59;10.95;;;4.13;;
49416;SDS011;35290;39.550;8.786;2023-03-31T10:22:32;17.20;;;5.60;;
49416;SDS011;35290;39.550;8.786;2023-03-31T10:25:13;14.90;;;4.90;;
49416;SDS011;35290;39.550;8.786;2023-03-31T10:27:46;15.05;;;4.70;;
49416;SDS011;35290;39.550;8.786;2023-03-31T10:30:16;14.60;;;4.47;;
49416;SDS011;35290;39.550;8.786;2023-03-31T10:37:53;13.82;;;4.18;;
49416;SDS011;35290;39.550;8.786;2023-03-31T10:40:21;12.77;;;4.13;;
49416;SDS011;35290;39.550;8.786;2023-03-31T10:42:56;15.90;;;4.60;;
49416;SDS011;35290;39.550;8.786;2023-03-31T10:45:25;17.15;;;4.43;;
49416;SDS011;35290;39.550;8.786;2023-03-31T10:47:56;9.25;;;3.78;;
49416;SDS011;35290;39.550;8.786;2023-03-31T10:50:29;14.10;;;4.53;;
49416;SDS011;35290;39.550;8.786;2023-03-31T10:53:00;15.55;;;4.75;;
49416;SDS011;35290;39.550;8.786;2023-03-31T10:56:16;14.10;;;4.57;;
49416;SDS011;35290;39.550;8.786;2023-03-31T10:58:41;9.13;;;3.80;;
49416;SDS011;35290;39.550;8.786;2023-03-31T11:01:32;19.13;;;5.30;;
49416;SDS011;35290;39.550;8.786;2023-03-31T11:09:42;18.90;;;7.10;;
49416;SDS011;35290;39.550;8.786;2023-03-31T11:15:23;21.25;;;6.63;;
49416;SDS011;35290;39.550;8.786;2023-03-31T11:28:00;19.75;;;7.53;;
49416;SDS011;35290;39.550;8.786;2023-03-31T11:31:10;22.65;;;15.10;;
49416;SDS011;35290;39.550;8.786;2023-03-31T11:33:43;26.55;;;11.13;;
49416;SDS011;35290;39.550;8.786;2023-03-31T11:39:39;14.75;;;4.93;;
49416;SDS011;35290;39.550;8.786;2023-03-31T11:41:58;16.13;;;5.30;;
49416;SDS011;35290;39.550;8.786;2023-03-31T11:44:26;16.30;;;4.13;;
49416;SDS011;35290;39.550;8.786;2023-03-31T11:46:58;19.33;;;4.20;;
49416;SDS011;35290;39.550;8.786;2023-03-31T11:54:32;17.02;;;8.18;;
49416;SDS011;35290;39.550;8.786;2023-03-31T11:57:01;13.20;;;4.47;;
49416;SDS011;35290;39.550;8.786;2023-03-31T11:59:31;14.70;;;3.72;;
49416;SDS011;35290;39.550;8.786;2023-03-31T12:02:08;12.25;;;3.85;;
49416;SDS011;35290;39.550;8.786;2023-03-31T12:07:53;14.52;;;3.22;;
49416;SDS011;35290;39.550;8.786;2023-03-31T12:10:14;10.23;;;2.50;;
49416;SDS011;35290;39.550;8.786;2023-03-31T12:12:42;10.45;;;2.90;;
49416;SDS011;35290;39.550;8.786;2023-03-31T12:15:24;10.40;;;2.58;;
49416;SDS011;35290;39.550;8.786;2023-03-31T12:18:28;10.18;;;2.60;;
49416;SDS011;35290;39.550;8.786;2023-03-31T12:20:49;9.73;;;3.08;;
49416;SDS011;35290;39.550;8.786;2023-03-31T12:23:20;10.05;;;2.75;;
49416;SDS011;35290;39.550;8.786;2023-03-31T12:25:53;13.40;;;2.75;;
49416;SDS011;35290;39.550;8.786;2023-03-31T12:28:38;12.57;;;2.92;;
49416;SDS011;35290;39.550;8.786;2023-03-31T12:31:05;16.23;;;3.00;;
49416;SDS011;35290;39.550;8.786;2023-03-31T12:33:39;10.98;;;2.78;;
49416;SDS011;35290;39.550;8.786;2023-03-31T12:41:34;15.05;;;2.60;;
49416;SDS011;35290;39.550;8.786;2023-03-31T12:55:26;18.15;;;3.78;;
49416;SDS011;35290;39.550;8.786;2023-03-31T13:09:04;14.60;;;3.42;;
49416;SDS011;35290;39.550;8.786;2023-03-31T13:11:36;20.70;;;3.72;;
49416;SDS011;35290;39.550;8.786;2023-03-31T13:14:16;16.02;;;3.22;;
49416;SDS011;35290;39.550;8.786;2023-03-31T13:16:44;14.57;;;3.45;;
49416;SDS011;35290;39.550;8.786;2023-03-31T13:19:11;12.52;;;2.90;;
49416;SDS011;35290;39.550;8.786;2023-03-31T13:21:56;18.35;;;3.72;;
49416;SDS011;35290;39.550;8.786;2023-03-31T13:24:23;13.00;;;3.65;;
49416;SDS011;35290;39.550;8.786;2023-03-31T13:26:50;19.42;;;4.25;;
49416;SDS011;35290;39.550;8.786;2023-03-31T13:29:23;15.52;;;3.90;;
49416;SDS011;35290;39.550;8.786;2023-03-31T13:32:16;16.33;;;3.25;;
49416;SDS011;35290;39.550;8.786;2023-03-31T13:34:53;22.27;;;3.78;;
49416;SDS011;35290;39.550;8.786;2023-03-31T13:40:06;16.58;;;3.72;;
49416;SDS011;35290;39.550;8.786;2023-03-31T13:53:29;16.27;;;4.13;;
49416;SDS011;35290;39.550;8.786;2023-03-31T13:56:03;13.98;;;3.50;;
49416;SDS011;35290;39.550;8.786;2023-03-31T13:58:43;16.10;;;3.58;;
49416;SDS011;35290;39.550;8.786;2023-03-31T14:01:42;18.23;;;4.05;;
49416;SDS011;35290;39.550;8.786;2023-03-31T14:07:14;18.58;;;4.43;;
49416;SDS011;35290;39.550;8.786;2023-03-31T14:09:42;13.65;;;4.00;;
49416;SDS011;35290;39.550;8.786;2023-03-31T14:12:30;14.98;;;3.42;;
49416;SDS011;35290;39.550;8.786;2023-03-31T14:14:57;20.15;;;3.85;;
49416;SDS011;35290;39.550;8.786;2023-03-31T14:17:29;14.82;;;4.30;;
49416;SDS011;35290;39.550;8.786;2023-03-31T14:39:29;17.48;;;3.70;;
49416;SDS011;35290;39.550;8.786;2023-03-31T14:42:01;22.15;;;5.10;;
49416;SDS011;35290;39.550;8.786;2023-03-31T14:44:29;20.90;;;4.20;;
49416;SDS011;35290;39.550;8.786;2023-03-31T14:46:56;21.77;;;4.85;;
49416;SDS011;35290;39.550;8.786;2023-03-31T14:51:53;22.55;;;5.28;;
49416;SDS011;35290;39.550;8.786;2023-03-31T14:54:20;24.50;;;5.28;;
49416;SDS011;35290;39.550;8.786;2023-03-31T14:56:47;24.02;;;5.50;;
49416;SDS011;35290;39.550;8.786;2023-03-31T14:59:30;20.55;;;4.72;;
49416;SDS011;35290;39.550;8.786;2023-03-31T15:01:58;33.05;;;7.03;;
49416;SDS011;35290;39.550;8.786;2023-03-31T15:04:25;22.10;;;5.93;;
49416;SDS011;35290;39.550;8.786;2023-03-31T15:06:53;19.05;;;4.72;;
49416;SDS011;35290;39.550;8.786;2023-03-31T15:09:28;17.45;;;4.28;;
49416;SDS011;35290;39.550;8.786;2023-03-31T15:11:56;21.63;;;4.80;;
49416;SDS011;35290;39.550;8.786;2023-03-31T15:14:44;19.35;;;4.47;;
49416;SDS011;35290;39.550;8.786;2023-03-31T15:17:16;21.45;;;4.53;;
49416;SDS011;35290;39.550;8.786;2023-03-31T15:19:43;21.63;;;4.72;;
49416;SDS011;35290;39.550;8.786;2023-03-31T15:22:15;20.45;;;3.80;;
49416;SDS011;35290;39.550;8.786;2023-03-31T15:24:43;17.70;;;3.92;;
49416;SDS011;35290;39.550;8.786;2023-03-31T15:27:31;25.02;;;5.60;;
49416;SDS011;35290;39.550;8.786;2023-03-31T15:30:15;24.42;;;4.00;;
49416;SDS011;35290;39.550;8.786;2023-03-31T15:32:43;16.30;;;3.78;;
49416;SDS011;35290;39.550;8.786;2023-03-31T15:35:19;13.98;;;3.35;;
49416;SDS011;35290;39.550;8.786;2023-03-31T15:37:49;20.58;;;4.40;;
49416;SDS011;35290;39.550;8.786;2023-03-31T15:42:44;20.95;;;3.65;;
49416;SDS011;35290;39.550;8.786;2023-03-31T15:47:36;18.83;;;3.30;;
49416;SDS011;35290;39.550;8.786;2023-03-31T15:50:09;18.00;;;3.78;;
49416;SDS011;35290;39.550;8.786;2023-03-31T15:52:38;17.77;;;3.38;;
49416;SDS011;35290;39.550;8.786;2023-03-31T15:58:04;17.67;;;3.90;;
49416;SDS011;35290;39.550;8.786;2023-03-31T16:02:55;17.27;;;4.43;;
49416;SDS011;35290;39.550;8.786;2023-03-31T16:08:10;20.45;;;5.25;;
49416;SDS011;35290;39.550;8.786;2023-03-31T16:10:40;21.48;;;4.53;;
49416;SDS011;35290;39.550;8.786;2023-03-31T16:13:05;23.98;;;5.10;;
49416;SDS011;35290;39.550;8.786;2023-03-31T16:15:43;23.38;;;5.18;;
49416;SDS011;35290;39.550;8.786;2023-03-31T16:18:16;23.40;;;4.57;;
49416;SDS011;35290;39.550;8.786;2023-03-31T16:20:54;27.35;;;5.28;;
49416;SDS011;35290;39.550;8.786;2023-03-31T16:23:25;22.35;;;4.97;;
49416;SDS011;35290;39.550;8.786;2023-03-31T16:37:00;27.52;;;5.35;;
49416;SDS011;35290;39.550;8.786;2023-03-31T16:39:33;24.17;;;5.38;;
49416;SDS011;35290;39.550;8.786;2023-03-31T16:45:58;30.25;;;4.78;;
49416;SDS011;35290;39.550;8.786;2023-03-31T16:48:26;29.73;;;5.20;;
49416;SDS011;35290;39.550;8.786;2023-03-31T16:51:02;24.63;;;5.30;;
49416;SDS011;35290;39.550;8.786;2023-03-31T16:53:29;25.67;;;5.18;;
49416;SDS011;35290;39.550;8.786;2023-03-31T16:55:56;23.52;;;4.82;;
49416;SDS011;35290;39.550;8.786;2023-03-31T17:01:13;29.38;;;6.32;;
49416;SDS011;35290;39.550;8.786;2023-03-31T17:03:39;30.98;;;5.38;;
49416;SDS011;35290;39.550;8.786;2023-03-31T17:06:13;32.05;;;6.28;;
49416;SDS011;35290;39.550;8.786;2023-03-31T17:08:59;27.30;;;5.80;;
49416;SDS011;35290;39.550;8.786;2023-03-31T17:11:36;32.65;;;5.63;;
49416;SDS011;35290;39.550;8.786;2023-03-31T17:14:33;35.97;;;6.60;;
49416;SDS011;35290;39.550;8.786;2023-03-31T17:17:01;27.38;;;5.75;;
49416;SDS011;35290;39.550;8.786;2023-03-31T17:19:27;33.20;;;5.85;;
49416;SDS011;35290;39.550;8.786;2023-03-31T17:27:17;38.15;;;6.00;;
49416;SDS011;35290;39.550;8.786;2023-03-31T17:30:09;32.92;;;5.70;;
49416;SDS011;35290;39.550;8.786;2023-03-31T17:33:13;36.53;;;5.97;;
49416;SDS011;35290;39.550;8.786;2023-03-31T17:59:32;35.35;;;7.78;;
49416;SDS011;35290;39.550;8.786;2023-03-31T18:14:19;41.08;;;8.18;;
49416;SDS011;35290;39.550;8.786;2023-03-31T18:24:55;37.17;;;9.13;;
49416;SDS011;35290;39.550;8.786;2023-03-31T18:27:20;30.52;;;8.13;;
49416;SDS011;35290;39.550;8.786;2023-03-31T18:52:29;30.30;;;8.20;;
49416;SDS011;35290;39.550;8.786;2023-03-31T18:54:55;31.42;;;7.82;;
49416;SDS011;35290;39.550;8.786;2023-03-31T18:57:21;30.15;;;7.90;;
49416;SDS011;35290;39.550;8.786;2023-03-31T18:59:47;33.38;;;7.15;;
49416;SDS011;35290;39.550;8.786;2023-03-31T19:02:14;31.08;;;8.18;;
49416;SDS011;35290;39.550;8.786;2023-03-31T19:04:49;38.88;;;8.98;;
49416;SDS011;35290;39.550;8.786;2023-03-31T19:17:53;31.83;;;8.20;;
49416;SDS011;35290;39.550;8.786;2023-03-31T19:21:18;29.83;;;7.55;;
49416;SDS011;35290;39.550;8.786;2023-03-31T19:23:59;28.45;;;7.55;;
49416;SDS011;35290;39.550;8.786;2023-03-31T19:37:33;24.00;;;7.30;;